Flight Track Log - Related Links

Times and Time Zones

All times are in EDT time to prevent confusion due to time zone crossing. See the SWA709 flight status page for this flight to view local times or setup timezone preferences in your user account.

Time Position Orientation Groundspeed Altitude Reporting Facility
EDT Latitude Longitude Course Direction KTS MPH feet Rate Location/Type
Mon 12:40:15 PM 37.4358 -121.9478 North 227 261 4,800  Level Oakland Center
Mon 12:41:17 PM 37.3753 -121.8636 132° Southeast 280 322 5,500 2,049 Climbing Oakland Center
Mon 12:42:18 PM 37.3150 -121.8019 141° Southeast 290 334 9,000 3,492 Climbing Oakland Center
Mon 12:43:19 PM 37.2819 -121.8742 240° Southwest 273 314 12,600 2,780 Climbing Oakland Center
Mon 12:44:00 PM 37.8476 -121.7810 63° Northeast  Level FlightAware Approximate
Mon 12:44:21 PM 37.3472 -121.9278 327° Northwest 293 337 14,700  Level Oakland Center
Mon 12:45:22 PM 37.4422 -121.9503 349° North 345 397 17,000 2,390 Climbing Oakland Center
Mon 12:46:24 PM 37.5436 -121.9614 355° North 361 415 19,600 2,488 Climbing Oakland Center
Mon 12:47:25 PM 37.6333 -121.8892 33° Northeast 397 457 22,100 2,293 Climbing Oakland Center
Mon 12:48:27 PM 37.6944 -121.7653 58° Northeast 414 476 24,300 2,195 Climbing Oakland Center
Mon 12:49:28 PM 37.7717 -121.6114 58° Northeast 430 495 26,600 2,016 Climbing Oakland Center
Mon 12:50:29 PM 37.8403 -121.4747 58° Northeast 450 518 28,400 1,756 Climbing Oakland Center
Mon 12:51:31 PM 37.9081 -121.3383 58° Northeast 459 528 30,200 1,902 Climbing Oakland Center
Mon 12:52:32 PM 37.9758 -121.2017 58° Northeast 461 531 32,300 1,756 Climbing Oakland Center
Mon 12:53:34 PM 38.0417 -121.0681 58° Northeast 452 520 33,800 1,415 Climbing Oakland Center
Mon 12:54:35 PM 38.0944 -120.9206 66° East 461 531 35,200 1,377 Climbing Oakland Center
Mon 12:55:36 PM 38.1269 -120.7644 75° East 463 533 36,600 878 Climbing Oakland Center
Mon 12:56:38 PM 38.1533 -120.6064 78° East 462 532 37,000 195 Climbing Oakland Center
Mon 12:57:39 PM 38.1878 -120.4161 77° East 462 532 37,000  Level Oakland Center
Mon 12:58:41 PM 38.2156 -120.2575 77° East 462 532 37,000  Level Oakland Center
Mon 12:59:42 PM 38.2439 -120.0975 77° East 465 535 37,000  Level Oakland Center
Mon 01:00:44 PM 38.2722 -119.9375 77° East 463 533 37,000  Level Oakland Center
Mon 01:01:45 PM 38.3003 -119.7772 77° East 465 535 37,000  Level Oakland Center
Mon 01:02:46 PM 38.3278 -119.6164 78° East 465 535 37,000  Level Oakland Center
Mon 01:03:48 PM 38.3547 -119.4492 78° East 465 535 37,000  Level Oakland Center
Mon 01:04:49 PM 38.3819 -119.2883 78° East 465 535 37,000  Level Oakland Center
Mon 01:05:51 PM 38.4086 -119.1269 78° East 466 536 37,000  Level Oakland Center
Mon 01:06:52 PM 38.4403 -118.9303 78° East 472 543 37,000  Level Oakland Center
Mon 01:07:54 PM 38.4669 -118.7672 78° East 472 543 37,000  Level Oakland Center
Mon 01:08:55 PM 38.4939 -118.6028 78° East 474 545 37,000  Level Oakland Center
Mon 01:09:57 PM 38.5203 -118.4378 78° East 477 549 37,000  Level Oakland Center
Mon 01:10:58 PM 38.5458 -118.2728 79° East 477 549 37,000  Level Oakland Center
Mon 01:11:59 PM 38.5756 -118.0850 78° East 480 552 37,000  Level Oakland Center
Mon 01:13:01 PM 38.6019 -117.9161 79° East 482 555 37,000  Level Oakland Center
Mon 01:14:02 PM 38.6275 -117.7475 79° East 482 555 37,000  Level Oakland Center
Mon 01:15:04 PM 38.6536 -117.5786 79° East 482 555 37,000  Level Oakland Center
Mon 01:16:05 PM 38.6781 -117.4086 80° East 482 555 37,000  Level Oakland Center
Mon 01:16:52 PM 38.6978 -117.2717 80° East 485 558 37,000  Level Salt Lake Center
Mon 01:17:53 PM 38.7236 -117.0997 79° East 488 562 37,000  Level Salt Lake Center
Mon 01:18:08 PM 38.7286 -117.0647 80° East 489 563 37,000  Level Oakland Center
Mon 01:19:10 PM 38.7531 -116.8947 80° East 485 558 37,000  Level Oakland Center
Mon 01:19:56 PM 38.7722 -116.7575 80° East 487 560 37,000  Level Salt Lake Center
Mon 01:20:58 PM 38.7972 -116.5853 79° East 489 563 37,000  Level Salt Lake Center
Mon 01:21:59 PM 38.8214 -116.4133 80° East 489 563 37,000  Level Salt Lake Center
Mon 01:22:14 PM 38.8264 -116.3786 80° East 489 563 37,000  Level Oakland Center
Mon 01:23:01 PM 38.8453 -116.2403 80° East 490 564 37,000  Level Salt Lake Center
Mon 01:24:02 PM 38.8703 -116.0661 80° East 495 570 37,000  Level Salt Lake Center
Mon 01:25:04 PM 38.8925 -115.8911 81° East 496 571 37,000  Level Salt Lake Center
Mon 01:26:05 PM 38.9219 -115.6797 80° East 501 577 37,000  Level Salt Lake Center
Mon 01:27:06 PM 38.9450 -115.5036 80° East 501 577 37,000  Level Salt Lake Center
Mon 01:28:08 PM 38.9700 -115.3253 80° East 501 577 37,000  Level Salt Lake Center
Mon 01:29:09 PM 38.9922 -115.1478 81° East 503 579 37,000  Level Salt Lake Center
Mon 01:30:11 PM 39.0147 -114.9708 81° East 502 578 37,000  Level Salt Lake Center
Mon 01:31:12 PM 39.0378 -114.7925 80° East 504 580 37,000  Level Salt Lake Center
Mon 01:32:14 PM 39.0611 -114.6125 80° East 510 587 37,000  Level Salt Lake Center
Mon 01:33:15 PM 39.0828 -114.4331 81° East 509 586 37,000  Level Salt Lake Center
Mon 01:34:17 PM 39.1056 -114.2531 81° East 510 587 37,000  Level Salt Lake Center
Mon 01:35:18 PM 39.1269 -114.0719 81° East 510 587 37,000  Level Salt Lake Center
Mon 01:36:19 PM 39.1528 -113.8558 81° East 511 588 37,000  Level Salt Lake Center
Mon 01:37:21 PM 39.1736 -113.6750 81° East 510 587 37,000  Level Salt Lake Center
Mon 01:38:23 PM 39.1931 -113.4936 82° East 511 588 37,000  Level Salt Lake Center
Mon 01:39:24 PM 39.2147 -113.3111 81° East 512 589 37,000  Level Salt Lake Center
Mon 01:40:26 PM 39.2347 -113.1303 82° East 510 587 37,000  Level Salt Lake Center
Mon 01:41:27 PM 39.2550 -112.9486 82° East 513 590 37,000  Level Salt Lake Center
Mon 01:42:29 PM 39.2750 -112.7658 82° East 514 592 37,000  Level Salt Lake Center
Mon 01:43:30 PM 39.2967 -112.5661 82° East 516 594 37,000  Level Salt Lake Center
Mon 01:44:32 PM 39.3247 -112.3867 79° East 514 592 37,000  Level Salt Lake Center
Mon 01:45:34 PM 39.3581 -112.2089 76° East 512 589 37,000  Level Salt Lake Center
Mon 01:46:35 PM 39.3911 -112.0311 76° East 512 589 37,000  Level Salt Lake Center
Mon 01:47:37 PM 39.4322 -111.8147 76° East 518 596 37,000  Level Salt Lake Center
Mon 01:48:39 PM 39.4644 -111.6339 77° East 518 596 37,000  Level Salt Lake Center
Mon 01:49:40 PM 39.4964 -111.4542 77° East 517 595 37,000  Level Salt Lake Center
Mon 01:50:42 PM 39.5306 -111.2642 77° East 522 601 37,000  Level Salt Lake Center
Mon 01:51:44 PM 39.5603 -111.0886 78° East 521 600 37,000  Level Salt Lake Center
Mon 01:52:45 PM 39.5961 -110.8853 77° East 519 597 37,000  Level Salt Lake Center
Mon 01:53:47 PM 39.6275 -110.7117 77° East 518 596 37,000  Level Salt Lake Center
Mon 01:54:49 PM 39.6614 -110.5075 78° East 518 596 37,000  Level Salt Lake Center
Mon 01:55:51 PM 39.6906 -110.3308 78° East 521 600 37,000  Level Salt Lake Center
Mon 01:56:52 PM 39.7253 -110.1239 78° East 526 605 37,000  Level Salt Lake Center
Mon 01:57:54 PM 39.7536 -109.9464 78° East 526 605 37,000  Level Salt Lake Center
Mon 01:58:56 PM 39.7842 -109.7692 77° East 524 603 37,000  Level Salt Lake Center
Mon 01:59:58 PM 39.8167 -109.5619 78° East 523 602 37,000  Level Salt Lake Center
Mon 02:00:32 PM 39.8314 -109.4717 78° East 522 601 37,000  Level Denver Center
Mon 02:01:33 PM 39.8639 -109.2633 78° East 524 603 37,000  Level Denver Center
Mon 02:02:01 PM 39.8781 -109.1767 78° East 524 603 37,000  Level Salt Lake Center
Mon 02:03:03 PM 39.9061 -108.9956 79° East 527 606 37,000  Level Salt Lake Center
Mon 02:03:37 PM 39.9242 -108.8728 79° East 528 608 37,000  Level Denver Center
Mon 02:04:39 PM 39.9533 -108.6911 78° East 528 608 37,000  Level Denver Center
Mon 02:05:40 PM 39.9797 -108.5094 79° East 529 609 37,000  Level Denver Center
Mon 02:06:42 PM 40.0122 -108.2989 79° East 528 608 37,000  Level Denver Center
Mon 02:07:44 PM 40.0397 -108.1178 79° East 529 609 37,000  Level Denver Center
Mon 02:08:46 PM 40.0697 -107.9042 80° East 533 613 37,000 -454 Level Denver Center
Mon 02:10:00 PM 40.1029 -107.7016 76° East  Level FlightAware Approximate
Mon 02:10:49 PM 40.1442 -107.5475 76° East 532 612 35,600  Level Denver Center
Mon 02:11:51 PM 40.1856 -107.3392 75° East 529 609 35,000 -290 Descending Denver Center
Mon 02:12:53 PM 40.2206 -107.1656 75° East 520 598 35,000  Level Denver Center
Mon 02:13:54 PM 40.2614 -106.9553 76° East 528 608 35,000  Level Denver Center
Mon 02:14:56 PM 40.2942 -106.7858 76° East 537 618 35,000 -145 Level Denver Center
Mon 02:15:58 PM 40.3325 -106.5939 75° East 542 624 34,700 -1,902 Descending Denver Center
Mon 02:16:59 PM 40.3469 -106.3675 85° East 547 629 31,100 -2,878 Descending Denver Center
Mon 02:18:01 PM 40.3494 -106.1733 89° East 557 641 28,800 -2,419 Descending Denver Center
Mon 02:19:03 PM 40.3508 -105.9472 89° East 538 619 26,100 -1,951 Descending Denver Center
Mon 02:20:04 PM 40.3617 -105.7683 85° East 481 554 24,800 -1,854 Descending Denver Center
Mon 02:21:06 PM 40.3561 -105.6044 92° East 449 517 22,300 -1,790 Descending Denver Center
Mon 02:22:08 PM 40.3528 -105.4514 92° East 426 490 21,100 -1,268 Descending Denver Center
Mon 02:23:09 PM 40.2981 -105.3467 124° Southeast 354 407 19,700 -1,512 Descending Denver Center
Mon 02:24:11 PM 40.2336 -105.2411 129° Southeast 346 398 18,000 -1,366 Descending Denver Center
Mon 02:25:12 PM 40.1908 -105.1625 125° Southeast 345 397 16,900 -1,171 Descending Denver Center
Mon 02:26:14 PM 40.1253 -105.0411 125° Southeast 331 381 15,600 -1,306 Descending Denver Center
Mon 02:27:16 PM 40.0683 -104.9386 126° Southeast 323 372 14,200 -1,210 Descending Denver Center
Mon 02:28:18 PM 40.0156 -104.8428 126° Southeast 323 372 13,100 -829 Descending Denver Center
Mon 02:29:19 PM 39.9664 -104.7450 123° Southeast 322 371 12,500 -844 Descending Denver Center
Mon 02:30:33 PM 39.9250 -104.6439 118° Southeast 315 362 11,200 -662 Descending Denver Center
Mon 02:31:35 PM 39.8706 -104.5436 125° Southeast 265 305 11,000 -48 Descending Denver Center
Mon 02:32:37 PM 39.8031 -104.5122 160° South 241 277 11,100  Climbing Denver Center
Mon 02:33:38 PM 39.7344 -104.5164 183° South 243 280 11,000 -634 Descending Denver Center
Mon 02:34:40 PM 39.6647 -104.5197 182° South 248 285 9,800 -1,113 Descending Denver Center
Mon 02:35:42 PM 39.5906 -104.5256 183° South 247 284 8,700 -878 Descending Denver Center
Mon 02:36:43 PM 39.5436 -104.5664 214° Southwest 236 272 8,000 -293 Descending Denver Center
Mon 02:37:45 PM 39.5611 -104.6278 290° West 200 230 8,100 48 Climbing Denver Center
Mon 02:38:47 PM 39.6142 -104.6453 346° North 178 205 8,100 -293 Level Denver Center
Mon 02:39:48 PM 39.6625 -104.6439 North 174 200 7,500 -488 Descending Denver Center
Mon 02:40:50 PM 39.7089 -104.6431 North 169 194 7,100 -290 Descending Denver Center
Mon 02:41:52 PM 39.7578 -104.6425 North 164 189 6,900 -488 Descending Denver Center
Mon 02:42:53 PM 39.7972 -104.6419 North 142 163 6,100 -732 Descending Denver Center
Mon 02:43:55 PM 39.8375 -104.6422 360° North 144 166 5,400 -677 Descending Denver Center
Mon 02:45:00 PM 39.8500 -104.6667 North  Level FlightAware Approximate
Mon 02:52:00 PM 39.8617 -104.6732 North  Level Estimated
Mon 02:53:00 PM 39.8617 -104.6732 North  Level Estimated
Mon 02:54:00 PM 39.8617 -104.6732 North  Level Estimated

Login

Don't have an account? Register now (free) for customized features, flight alerts, and more!